sensor_id;sensor_type;location;lat;lon;timestamp;P1;durP1;ratioP1;P2;durP2;ratioP2
28003;SDS011;15330;51.234;6.754;2022-11-20T00:01:45;31.17;;;19.55;;
28003;SDS011;15330;51.234;6.754;2022-11-20T00:04:10;35.60;;;19.45;;
28003;SDS011;15330;51.234;6.754;2022-11-20T00:06:40;31.10;;;19.25;;
28003;SDS011;15330;51.234;6.754;2022-11-20T00:09:05;34.60;;;19.40;;
28003;SDS011;15330;51.234;6.754;2022-11-20T00:11:31;32.10;;;18.20;;
28003;SDS011;15330;51.234;6.754;2022-11-20T00:13:57;30.73;;;18.20;;
28003;SDS011;15330;51.234;6.754;2022-11-20T00:16:25;35.58;;;19.70;;
28003;SDS011;15330;51.234;6.754;2022-11-20T00:18:53;31.83;;;18.77;;
28003;SDS011;15330;51.234;6.754;2022-11-20T00:21:23;32.47;;;18.17;;
28003;SDS011;15330;51.234;6.754;2022-11-20T00:23:53;30.58;;;18.85;;
28003;SDS011;15330;51.234;6.754;2022-11-20T00:26:20;30.90;;;18.88;;
28003;SDS011;15330;51.234;6.754;2022-11-20T00:28:50;31.27;;;18.08;;
28003;SDS011;15330;51.234;6.754;2022-11-20T00:31:18;31.35;;;18.48;;
28003;SDS011;15330;51.234;6.754;2022-11-20T00:33:44;34.15;;;19.38;;
28003;SDS011;15330;51.234;6.754;2022-11-20T00:36:10;34.97;;;20.15;;
28003;SDS011;15330;51.234;6.754;2022-11-20T00:38:38;29.13;;;17.17;;
28003;SDS011;15330;51.234;6.754;2022-11-20T00:41:04;29.98;;;18.00;;
28003;SDS011;15330;51.234;6.754;2022-11-20T00:43:31;35.25;;;19.45;;
28003;SDS011;15330;51.234;6.754;2022-11-20T00:46:01;30.45;;;18.80;;
28003;SDS011;15330;51.234;6.754;2022-11-20T00:48:38;33.58;;;18.50;;
28003;SDS011;15330;51.234;6.754;2022-11-20T00:51:03;32.30;;;19.33;;
28003;SDS011;15330;51.234;6.754;2022-11-20T00:53:29;30.38;;;18.27;;
28003;SDS011;15330;51.234;6.754;2022-11-20T00:55:55;29.77;;;18.45;;
28003;SDS011;15330;51.234;6.754;2022-11-20T00:58:23;31.67;;;19.63;;
28003;SDS011;15330;51.234;6.754;2022-11-20T01:00:49;31.35;;;19.02;;
28003;SDS011;15330;51.234;6.754;2022-11-20T01:03:15;32.40;;;19.30;;
28003;SDS011;15330;51.234;6.754;2022-11-20T01:05:41;31.98;;;20.20;;
28003;SDS011;15330;51.234;6.754;2022-11-20T01:08:07;36.55;;;19.08;;
28003;SDS011;15330;51.234;6.754;2022-11-20T01:10:32;35.28;;;20.42;;
28003;SDS011;15330;51.234;6.754;2022-11-20T01:12:57;33.03;;;19.15;;
28003;SDS011;15330;51.234;6.754;2022-11-20T01:15:42;31.85;;;18.95;;
28003;SDS011;15330;51.234;6.754;2022-11-20T01:18:07;32.85;;;18.95;;
28003;SDS011;15330;51.234;6.754;2022-11-20T01:20:36;34.78;;;19.98;;
28003;SDS011;15330;51.234;6.754;2022-11-20T01:25:36;32.58;;;18.90;;
28003;SDS011;15330;51.234;6.754;2022-11-20T01:28:02;30.60;;;18.17;;
28003;SDS011;15330;51.234;6.754;2022-11-20T01:30:28;32.85;;;19.15;;
28003;SDS011;15330;51.234;6.754;2022-11-20T01:32:54;34.75;;;18.77;;
28003;SDS011;15330;51.234;6.754;2022-11-20T01:35:20;33.33;;;19.50;;
28003;SDS011;15330;51.234;6.754;2022-11-20T01:37:45;36.22;;;20.52;;
28003;SDS011;15330;51.234;6.754;2022-11-20T01:40:11;32.88;;;19.63;;
28003;SDS011;15330;51.234;6.754;2022-11-20T01:42:36;33.38;;;19.38;;
28003;SDS011;15330;51.234;6.754;2022-11-20T01:48:04;34.63;;;19.65;;
28003;SDS011;15330;51.234;6.754;2022-11-20T01:50:30;35.85;;;19.13;;
28003;SDS011;15330;51.234;6.754;2022-11-20T01:53:00;31.95;;;19.58;;
28003;SDS011;15330;51.234;6.754;2022-11-20T01:55:34;30.92;;;19.63;;
28003;SDS011;15330;51.234;6.754;2022-11-20T01:58:04;34.38;;;20.05;;
28003;SDS011;15330;51.234;6.754;2022-11-20T02:00:31;32.45;;;18.95;;
28003;SDS011;15330;51.234;6.754;2022-11-20T02:02:57;33.30;;;19.55;;
28003;SDS011;15330;51.234;6.754;2022-11-20T02:05:27;38.22;;;20.73;;
28003;SDS011;15330;51.234;6.754;2022-11-20T02:07:57;32.95;;;20.10;;
28003;SDS011;15330;51.234;6.754;2022-11-20T02:10:26;32.58;;;20.05;;
28003;SDS011;15330;51.234;6.754;2022-11-20T02:12:53;35.38;;;20.85;;
28003;SDS011;15330;51.234;6.754;2022-11-20T02:15:37;34.53;;;20.05;;
28003;SDS011;15330;51.234;6.754;2022-11-20T02:18:02;36.20;;;20.85;;
28003;SDS011;15330;51.234;6.754;2022-11-20T02:20:29;33.20;;;20.13;;
28003;SDS011;15330;51.234;6.754;2022-11-20T02:22:55;35.25;;;19.92;;
28003;SDS011;15330;51.234;6.754;2022-11-20T02:25:24;36.05;;;20.45;;
28003;SDS011;15330;51.234;6.754;2022-11-20T02:27:52;35.15;;;21.25;;
28003;SDS011;15330;51.234;6.754;2022-11-20T02:30:17;37.30;;;19.80;;
28003;SDS011;15330;51.234;6.754;2022-11-20T02:32:43;32.80;;;19.60;;
28003;SDS011;15330;51.234;6.754;2022-11-20T02:37:36;34.95;;;20.60;;
28003;SDS011;15330;51.234;6.754;2022-11-20T02:40:03;36.72;;;20.33;;
28003;SDS011;15330;51.234;6.754;2022-11-20T02:42:29;34.22;;;19.20;;
28003;SDS011;15330;51.234;6.754;2022-11-20T02:44:55;35.90;;;20.52;;
28003;SDS011;15330;51.234;6.754;2022-11-20T02:47:20;34.50;;;20.13;;
28003;SDS011;15330;51.234;6.754;2022-11-20T02:49:45;33.33;;;20.33;;
28003;SDS011;15330;51.234;6.754;2022-11-20T02:52:11;36.08;;;20.15;;
28003;SDS011;15330;51.234;6.754;2022-11-20T02:54:36;32.92;;;19.35;;
28003;SDS011;15330;51.234;6.754;2022-11-20T02:57:01;33.00;;;19.27;;
28003;SDS011;15330;51.234;6.754;2022-11-20T02:59:27;30.50;;;18.33;;
28003;SDS011;15330;51.234;6.754;2022-11-20T03:01:52;31.73;;;19.38;;
28003;SDS011;15330;51.234;6.754;2022-11-20T03:04:17;33.25;;;20.48;;
28003;SDS011;15330;51.234;6.754;2022-11-20T03:06:43;33.17;;;19.60;;
28003;SDS011;15330;51.234;6.754;2022-11-20T03:09:08;31.27;;;19.08;;
28003;SDS011;15330;51.234;6.754;2022-11-20T03:11:34;32.85;;;19.83;;
28003;SDS011;15330;51.234;6.754;2022-11-20T03:14:03;33.78;;;19.65;;
28003;SDS011;15330;51.234;6.754;2022-11-20T03:16:30;31.80;;;19.20;;
28003;SDS011;15330;51.234;6.754;2022-11-20T03:18:56;31.27;;;18.73;;
28003;SDS011;15330;51.234;6.754;2022-11-20T03:21:22;33.10;;;19.15;;
28003;SDS011;15330;51.234;6.754;2022-11-20T03:23:47;32.22;;;18.83;;
28003;SDS011;15330;51.234;6.754;2022-11-20T03:26:14;33.05;;;19.40;;
28003;SDS011;15330;51.234;6.754;2022-11-20T03:28:47;32.35;;;19.52;;
28003;SDS011;15330;51.234;6.754;2022-11-20T03:31:14;33.03;;;19.42;;
28003;SDS011;15330;51.234;6.754;2022-11-20T03:33:42;32.30;;;19.63;;
28003;SDS011;15330;51.234;6.754;2022-11-20T03:36:08;32.65;;;18.55;;
28003;SDS011;15330;51.234;6.754;2022-11-20T03:38:36;36.13;;;19.67;;
28003;SDS011;15330;51.234;6.754;2022-11-20T03:41:05;33.13;;;19.35;;
28003;SDS011;15330;51.234;6.754;2022-11-20T03:43:36;33.42;;;18.70;;
28003;SDS011;15330;51.234;6.754;2022-11-20T03:46:02;34.45;;;19.42;;
28003;SDS011;15330;51.234;6.754;2022-11-20T03:48:28;34.60;;;19.58;;
28003;SDS011;15330;51.234;6.754;2022-11-20T03:51:07;31.15;;;19.25;;
28003;SDS011;15330;51.234;6.754;2022-11-20T03:53:41;38.78;;;20.50;;
28003;SDS011;15330;51.234;6.754;2022-11-20T03:56:08;32.78;;;19.55;;
28003;SDS011;15330;51.234;6.754;2022-11-20T03:58:35;33.38;;;19.52;;
28003;SDS011;15330;51.234;6.754;2022-11-20T04:01:20;30.58;;;19.13;;
28003;SDS011;15330;51.234;6.754;2022-11-20T04:03:47;33.80;;;20.00;;
28003;SDS011;15330;51.234;6.754;2022-11-20T04:06:20;33.17;;;19.95;;
28003;SDS011;15330;51.234;6.754;2022-11-20T04:08:47;39.67;;;20.90;;
28003;SDS011;15330;51.234;6.754;2022-11-20T04:13:40;37.47;;;20.45;;
28003;SDS011;15330;51.234;6.754;2022-11-20T04:16:07;31.73;;;19.42;;
28003;SDS011;15330;51.234;6.754;2022-11-20T04:18:34;32.88;;;20.27;;
28003;SDS011;15330;51.234;6.754;2022-11-20T04:21:00;35.20;;;19.45;;
28003;SDS011;15330;51.234;6.754;2022-11-20T04:23:25;35.03;;;19.50;;
28003;SDS011;15330;51.234;6.754;2022-11-20T04:25:51;33.97;;;19.60;;
28003;SDS011;15330;51.234;6.754;2022-11-20T04:28:16;35.40;;;20.00;;
28003;SDS011;15330;51.234;6.754;2022-11-20T04:30:41;35.78;;;21.85;;
28003;SDS011;15330;51.234;6.754;2022-11-20T04:33:07;34.33;;;19.38;;
28003;SDS011;15330;51.234;6.754;2022-11-20T04:35:36;35.15;;;19.92;;
28003;SDS011;15330;51.234;6.754;2022-11-20T04:38:02;36.65;;;20.15;;
28003;SDS011;15330;51.234;6.754;2022-11-20T04:40:28;35.03;;;20.23;;
28003;SDS011;15330;51.234;6.754;2022-11-20T04:42:54;37.00;;;19.98;;
28003;SDS011;15330;51.234;6.754;2022-11-20T04:45:20;35.15;;;20.23;;
28003;SDS011;15330;51.234;6.754;2022-11-20T04:47:47;36.35;;;20.85;;
28003;SDS011;15330;51.234;6.754;2022-11-20T04:50:12;34.42;;;20.52;;
28003;SDS011;15330;51.234;6.754;2022-11-20T04:52:38;38.30;;;20.75;;
28003;SDS011;15330;51.234;6.754;2022-11-20T04:55:03;38.72;;;21.42;;
28003;SDS011;15330;51.234;6.754;2022-11-20T04:57:29;35.00;;;21.05;;
28003;SDS011;15330;51.234;6.754;2022-11-20T04:59:54;35.65;;;20.25;;
28003;SDS011;15330;51.234;6.754;2022-11-20T05:02:20;33.78;;;20.27;;
28003;SDS011;15330;51.234;6.754;2022-11-20T05:04:45;34.35;;;20.85;;
28003;SDS011;15330;51.234;6.754;2022-11-20T05:07:10;34.53;;;19.98;;
28003;SDS011;15330;51.234;6.754;2022-11-20T05:09:36;37.25;;;20.17;;
28003;SDS011;15330;51.234;6.754;2022-11-20T05:12:01;35.15;;;19.45;;
28003;SDS011;15330;51.234;6.754;2022-11-20T05:14:27;34.63;;;20.00;;
28003;SDS011;15330;51.234;6.754;2022-11-20T05:16:52;34.35;;;20.30;;
28003;SDS011;15330;51.234;6.754;2022-11-20T05:19:17;33.92;;;19.17;;
28003;SDS011;15330;51.234;6.754;2022-11-20T05:21:43;38.63;;;20.60;;
28003;SDS011;15330;51.234;6.754;2022-11-20T05:24:08;35.20;;;20.27;;
28003;SDS011;15330;51.234;6.754;2022-11-20T05:26:33;34.58;;;20.10;;
28003;SDS011;15330;51.234;6.754;2022-11-20T05:28:59;32.45;;;19.73;;
28003;SDS011;15330;51.234;6.754;2022-11-20T05:31:24;33.05;;;19.98;;
28003;SDS011;15330;51.234;6.754;2022-11-20T05:33:50;39.95;;;19.83;;
28003;SDS011;15330;51.234;6.754;2022-11-20T05:36:16;29.98;;;19.75;;
28003;SDS011;15330;51.234;6.754;2022-11-20T05:38:42;34.05;;;19.77;;
28003;SDS011;15330;51.234;6.754;2022-11-20T05:41:10;36.75;;;20.85;;
28003;SDS011;15330;51.234;6.754;2022-11-20T05:43:40;37.40;;;20.60;;
28003;SDS011;15330;51.234;6.754;2022-11-20T05:46:09;34.00;;;20.75;;
28003;SDS011;15330;51.234;6.754;2022-11-20T05:48:38;38.55;;;21.80;;
28003;SDS011;15330;51.234;6.754;2022-11-20T05:51:05;34.03;;;20.75;;
28003;SDS011;15330;51.234;6.754;2022-11-20T05:53:32;39.08;;;21.30;;
28003;SDS011;15330;51.234;6.754;2022-11-20T05:56:03;38.45;;;21.05;;
28003;SDS011;15330;51.234;6.754;2022-11-20T05:58:34;37.65;;;20.98;;
28003;SDS011;15330;51.234;6.754;2022-11-20T06:01:08;39.92;;;20.70;;
28003;SDS011;15330;51.234;6.754;2022-11-20T06:03:35;37.40;;;21.63;;
28003;SDS011;15330;51.234;6.754;2022-11-20T06:06:00;36.22;;;21.45;;
28003;SDS011;15330;51.234;6.754;2022-11-20T06:08:28;36.72;;;20.00;;
28003;SDS011;15330;51.234;6.754;2022-11-20T06:10:53;39.03;;;22.45;;
28003;SDS011;15330;51.234;6.754;2022-11-20T06:13:19;48.10;;;25.23;;
28003;SDS011;15330;51.234;6.754;2022-11-20T06:15:50;45.15;;;24.55;;
28003;SDS011;15330;51.234;6.754;2022-11-20T06:18:17;41.70;;;23.27;;
28003;SDS011;15330;51.234;6.754;2022-11-20T06:20:43;44.67;;;25.20;;
28003;SDS011;15330;51.234;6.754;2022-11-20T06:23:08;46.00;;;24.10;;
28003;SDS011;15330;51.234;6.754;2022-11-20T06:25:36;61.80;;;32.60;;
28003;SDS011;15330;51.234;6.754;2022-11-20T06:28:03;64.47;;;33.85;;
28003;SDS011;15330;51.234;6.754;2022-11-20T06:30:29;47.53;;;26.02;;
28003;SDS011;15330;51.234;6.754;2022-11-20T06:32:54;51.88;;;28.67;;
28003;SDS011;15330;51.234;6.754;2022-11-20T06:35:19;44.88;;;23.88;;
28003;SDS011;15330;51.234;6.754;2022-11-20T06:37:45;44.30;;;24.88;;
28003;SDS011;15330;51.234;6.754;2022-11-20T06:40:10;41.58;;;24.65;;
28003;SDS011;15330;51.234;6.754;2022-11-20T06:42:36;37.05;;;21.27;;
28003;SDS011;15330;51.234;6.754;2022-11-20T06:45:02;41.60;;;23.13;;
28003;SDS011;15330;51.234;6.754;2022-11-20T06:47:27;36.97;;;21.33;;
28003;SDS011;15330;51.234;6.754;2022-11-20T06:49:52;38.70;;;22.38;;
28003;SDS011;15330;51.234;6.754;2022-11-20T06:52:18;37.78;;;21.42;;
28003;SDS011;15330;51.234;6.754;2022-11-20T06:54:44;37.03;;;21.20;;
28003;SDS011;15330;51.234;6.754;2022-11-20T06:57:09;53.28;;;27.88;;
28003;SDS011;15330;51.234;6.754;2022-11-20T06:59:34;78.97;;;37.97;;
28003;SDS011;15330;51.234;6.754;2022-11-20T07:02:00;55.65;;;28.33;;
28003;SDS011;15330;51.234;6.754;2022-11-20T07:04:25;52.72;;;28.38;;
28003;SDS011;15330;51.234;6.754;2022-11-20T07:06:50;45.42;;;24.52;;
28003;SDS011;15330;51.234;6.754;2022-11-20T07:09:15;41.67;;;24.42;;
28003;SDS011;15330;51.234;6.754;2022-11-20T07:11:41;35.65;;;21.67;;
28003;SDS011;15330;51.234;6.754;2022-11-20T07:14:06;56.22;;;28.20;;
28003;SDS011;15330;51.234;6.754;2022-11-20T07:16:32;49.38;;;26.75;;
28003;SDS011;15330;51.234;6.754;2022-11-20T07:18:57;53.15;;;27.45;;
28003;SDS011;15330;51.234;6.754;2022-11-20T07:21:22;49.13;;;25.60;;
28003;SDS011;15330;51.234;6.754;2022-11-20T07:23:48;39.10;;;21.65;;
28003;SDS011;15330;51.234;6.754;2022-11-20T07:26:13;49.22;;;24.73;;
28003;SDS011;15330;51.234;6.754;2022-11-20T07:28:38;58.60;;;27.92;;
28003;SDS011;15330;51.234;6.754;2022-11-20T07:31:04;39.22;;;22.15;;
28003;SDS011;15330;51.234;6.754;2022-11-20T07:33:31;65.50;;;31.60;;
28003;SDS011;15330;51.234;6.754;2022-11-20T07:36:00;44.75;;;23.17;;
28003;SDS011;15330;51.234;6.754;2022-11-20T07:38:26;48.53;;;25.02;;
28003;SDS011;15330;51.234;6.754;2022-11-20T07:40:55;40.50;;;21.90;;
28003;SDS011;15330;51.234;6.754;2022-11-20T07:43:22;51.97;;;27.17;;
28003;SDS011;15330;51.234;6.754;2022-11-20T07:45:48;54.55;;;28.08;;
28003;SDS011;15330;51.234;6.754;2022-11-20T07:48:13;41.97;;;22.83;;
28003;SDS011;15330;51.234;6.754;2022-11-20T07:50:39;59.85;;;30.77;;
28003;SDS011;15330;51.234;6.754;2022-11-20T07:53:04;79.93;;;37.08;;
28003;SDS011;15330;51.234;6.754;2022-11-20T07:55:30;47.88;;;25.75;;
28003;SDS011;15330;51.234;6.754;2022-11-20T07:57:56;36.20;;;21.10;;
28003;SDS011;15330;51.234;6.754;2022-11-20T08:00:22;54.22;;;26.65;;
28003;SDS011;15330;51.234;6.754;2022-11-20T08:02:48;44.88;;;24.38;;
28003;SDS011;15330;51.234;6.754;2022-11-20T08:05:13;44.53;;;23.08;;
28003;SDS011;15330;51.234;6.754;2022-11-20T08:07:39;51.25;;;26.33;;
28003;SDS011;15330;51.234;6.754;2022-11-20T08:10:07;65.35;;;31.23;;
28003;SDS011;15330;51.234;6.754;2022-11-20T08:12:34;63.30;;;29.52;;
28003;SDS011;15330;51.234;6.754;2022-11-20T08:15:18;43.92;;;23.05;;
28003;SDS011;15330;51.234;6.754;2022-11-20T08:17:43;46.00;;;21.85;;
28003;SDS011;15330;51.234;6.754;2022-11-20T08:20:08;42.28;;;22.95;;
28003;SDS011;15330;51.234;6.754;2022-11-20T08:22:35;40.13;;;23.40;;
28003;SDS011;15330;51.234;6.754;2022-11-20T08:25:00;47.03;;;24.33;;
28003;SDS011;15330;51.234;6.754;2022-11-20T08:27:25;48.70;;;25.65;;
28003;SDS011;15330;51.234;6.754;2022-11-20T08:29:51;48.22;;;25.65;;
28003;SDS011;15330;51.234;6.754;2022-11-20T08:32:16;45.63;;;24.15;;
28003;SDS011;15330;51.234;6.754;2022-11-20T08:34:42;57.10;;;29.10;;
28003;SDS011;15330;51.234;6.754;2022-11-20T08:37:07;46.58;;;25.20;;
28003;SDS011;15330;51.234;6.754;2022-11-20T08:39:33;55.75;;;29.05;;
28003;SDS011;15330;51.234;6.754;2022-11-20T08:41:58;62.25;;;30.10;;
28003;SDS011;15330;51.234;6.754;2022-11-20T08:44:23;39.15;;;23.15;;
28003;SDS011;15330;51.234;6.754;2022-11-20T08:46:49;42.22;;;22.80;;
28003;SDS011;15330;51.234;6.754;2022-11-20T08:49:14;41.78;;;22.70;;
28003;SDS011;15330;51.234;6.754;2022-11-20T08:51:40;42.75;;;23.55;;
28003;SDS011;15330;51.234;6.754;2022-11-20T08:54:06;60.25;;;28.52;;
28003;SDS011;15330;51.234;6.754;2022-11-20T08:56:32;48.08;;;25.13;;
28003;SDS011;15330;51.234;6.754;2022-11-20T08:58:58;54.15;;;28.48;;
28003;SDS011;15330;51.234;6.754;2022-11-20T09:01:26;41.90;;;23.25;;
28003;SDS011;15330;51.234;6.754;2022-11-20T09:03:54;41.05;;;23.92;;
28003;SDS011;15330;51.234;6.754;2022-11-20T09:06:21;41.38;;;23.20;;
28003;SDS011;15330;51.234;6.754;2022-11-20T09:08:47;40.30;;;23.42;;
28003;SDS011;15330;51.234;6.754;2022-11-20T09:11:12;45.95;;;24.77;;
28003;SDS011;15330;51.234;6.754;2022-11-20T09:13:37;40.67;;;21.92;;
28003;SDS011;15330;51.234;6.754;2022-11-20T09:16:07;43.45;;;23.13;;
28003;SDS011;15330;51.234;6.754;2022-11-20T09:18:33;35.35;;;21.38;;
28003;SDS011;15330;51.234;6.754;2022-11-20T09:21:08;37.67;;;21.23;;
28003;SDS011;15330;51.234;6.754;2022-11-20T09:23:35;40.33;;;21.77;;
28003;SDS011;15330;51.234;6.754;2022-11-20T09:26:05;38.67;;;22.10;;
28003;SDS011;15330;51.234;6.754;2022-11-20T09:28:33;38.50;;;21.15;;
28003;SDS011;15330;51.234;6.754;2022-11-20T09:30:59;46.55;;;22.17;;
28003;SDS011;15330;51.234;6.754;2022-11-20T09:33:24;40.22;;;21.92;;
28003;SDS011;15330;51.234;6.754;2022-11-20T09:35:50;38.28;;;21.27;;
28003;SDS011;15330;51.234;6.754;2022-11-20T09:38:18;36.47;;;21.50;;
28003;SDS011;15330;51.234;6.754;2022-11-20T09:40:45;38.15;;;22.08;;
28003;SDS011;15330;51.234;6.754;2022-11-20T09:49:23;34.83;;;19.92;;
28003;SDS011;15330;51.234;6.754;2022-11-20T09:54:37;31.17;;;17.23;;
28003;SDS011;15330;51.234;6.754;2022-11-20T09:57:09;42.25;;;21.65;;
28003;SDS011;15330;51.234;6.754;2022-11-20T09:59:42;37.78;;;20.13;;
28003;SDS011;15330;51.234;6.754;2022-11-20T10:04:51;38.80;;;20.05;;
28003;SDS011;15330;51.234;6.754;2022-11-20T10:09:51;39.55;;;20.00;;
28003;SDS011;15330;51.234;6.754;2022-11-20T10:15:29;39.25;;;20.00;;
28003;SDS011;15330;51.234;6.754;2022-11-20T10:26:30;37.20;;;19.52;;
28003;SDS011;15330;51.234;6.754;2022-11-20T10:29:08;35.92;;;19.90;;
28003;SDS011;15330;51.234;6.754;2022-11-20T10:31:44;34.85;;;18.98;;
28003;SDS011;15330;51.234;6.754;2022-11-20T10:37:05;41.63;;;22.10;;
28003;SDS011;15330;51.234;6.754;2022-11-20T10:39:42;36.05;;;18.83;;
28003;SDS011;15330;51.234;6.754;2022-11-20T10:42:16;35.00;;;19.30;;
28003;SDS011;15330;51.234;6.754;2022-11-20T10:44:52;38.95;;;19.52;;
28003;SDS011;15330;51.234;6.754;2022-11-20T10:47:27;36.78;;;19.90;;
28003;SDS011;15330;51.234;6.754;2022-11-20T10:49:56;39.55;;;21.05;;
28003;SDS011;15330;51.234;6.754;2022-11-20T10:55:11;42.10;;;21.38;;
28003;SDS011;15330;51.234;6.754;2022-11-20T10:57:52;38.85;;;19.92;;
28003;SDS011;15330;51.234;6.754;2022-11-20T11:00:24;39.55;;;20.90;;
28003;SDS011;15330;51.234;6.754;2022-11-20T11:02:50;40.55;;;21.35;;
28003;SDS011;15330;51.234;6.754;2022-11-20T11:07:45;44.05;;;21.30;;
28003;SDS011;15330;51.234;6.754;2022-11-20T11:12:50;40.25;;;21.58;;
28003;SDS011;15330;51.234;6.754;2022-11-20T11:15:27;42.75;;;22.52;;
28003;SDS011;15330;51.234;6.754;2022-11-20T11:18:03;40.25;;;20.98;;
28003;SDS011;15330;51.234;6.754;2022-11-20T11:20:29;41.00;;;20.40;;
28003;SDS011;15330;51.234;6.754;2022-11-20T11:22:58;39.55;;;20.75;;
28003;SDS011;15330;51.234;6.754;2022-11-20T11:27:53;45.95;;;22.33;;
28003;SDS011;15330;51.234;6.754;2022-11-20T11:30:21;42.33;;;21.25;;
28003;SDS011;15330;51.234;6.754;2022-11-20T11:32:47;39.80;;;20.55;;
28003;SDS011;15330;51.234;6.754;2022-11-20T11:35:26;41.15;;;21.80;;
28003;SDS011;15330;51.234;6.754;2022-11-20T11:37:54;40.20;;;19.33;;
28003;SDS011;15330;51.234;6.754;2022-11-20T11:40:28;43.58;;;21.17;;
28003;SDS011;15330;51.234;6.754;2022-11-20T11:42:58;41.47;;;21.80;;
28003;SDS011;15330;51.234;6.754;2022-11-20T11:45:26;41.00;;;21.15;;
28003;SDS011;15330;51.234;6.754;2022-11-20T11:47:53;38.72;;;19.73;;
28003;SDS011;15330;51.234;6.754;2022-11-20T11:50:23;44.15;;;20.73;;
28003;SDS011;15330;51.234;6.754;2022-11-20T11:53:05;43.10;;;20.85;;
28003;SDS011;15330;51.234;6.754;2022-11-20T11:55:45;39.65;;;20.40;;
28003;SDS011;15330;51.234;6.754;2022-11-20T12:01:11;41.13;;;21.57;;
28003;SDS011;15330;51.234;6.754;2022-11-20T12:03:53;42.35;;;22.15;;
28003;SDS011;15330;51.234;6.754;2022-11-20T12:06:36;38.85;;;19.70;;
28003;SDS011;15330;51.234;6.754;2022-11-20T12:09:08;38.53;;;20.00;;
28003;SDS011;15330;51.234;6.754;2022-11-20T12:11:46;41.22;;;20.80;;
28003;SDS011;15330;51.234;6.754;2022-11-20T12:14:31;39.33;;;21.55;;
28003;SDS011;15330;51.234;6.754;2022-11-20T12:17:01;44.60;;;21.17;;
28003;SDS011;15330;51.234;6.754;2022-11-20T12:19:28;48.28;;;25.02;;
28003;SDS011;15330;51.234;6.754;2022-11-20T12:30:08;40.55;;;21.33;;
28003;SDS011;15330;51.234;6.754;2022-11-20T12:35:47;41.88;;;21.08;;
28003;SDS011;15330;51.234;6.754;2022-11-20T12:38:36;39.65;;;22.33;;
28003;SDS011;15330;51.234;6.754;2022-11-20T12:50:30;43.25;;;23.02;;
28003;SDS011;15330;51.234;6.754;2022-11-20T12:53:08;42.72;;;22.52;;
28003;SDS011;15330;51.234;6.754;2022-11-20T12:55:56;44.83;;;22.73;;
28003;SDS011;15330;51.234;6.754;2022-11-20T13:06:53;47.15;;;23.70;;
28003;SDS011;15330;51.234;6.754;2022-11-20T13:09:20;42.95;;;23.20;;
28003;SDS011;15330;51.234;6.754;2022-11-20T13:11:50;47.95;;;23.83;;
28003;SDS011;15330;51.234;6.754;2022-11-20T13:14:41;52.42;;;25.40;;
28003;SDS011;15330;51.234;6.754;2022-11-20T13:17:32;45.05;;;22.92;;
28003;SDS011;15330;51.234;6.754;2022-11-20T13:20:05;48.53;;;24.67;;
28003;SDS011;15330;51.234;6.754;2022-11-20T13:22:44;47.40;;;24.30;;
28003;SDS011;15330;51.234;6.754;2022-11-20T13:27:54;48.45;;;25.23;;
28003;SDS011;15330;51.234;6.754;2022-11-20T13:30:23;49.35;;;24.42;;
28003;SDS011;15330;51.234;6.754;2022-11-20T13:32:57;52.40;;;26.58;;
28003;SDS011;15330;51.234;6.754;2022-11-20T13:35:28;53.20;;;27.60;;
28003;SDS011;15330;51.234;6.754;2022-11-20T13:38:04;41.80;;;23.45;;
28003;SDS011;15330;51.234;6.754;2022-11-20T13:40:33;50.25;;;25.63;;
28003;SDS011;15330;51.234;6.754;2022-11-20T13:43:10;51.22;;;25.25;;
28003;SDS011;15330;51.234;6.754;2022-11-20T13:45:57;48.17;;;24.20;;
28003;SDS011;15330;51.234;6.754;2022-11-20T13:48:30;50.97;;;26.00;;
28003;SDS011;15330;51.234;6.754;2022-11-20T13:51:13;55.13;;;25.98;;
28003;SDS011;15330;51.234;6.754;2022-11-20T13:59:28;57.08;;;25.35;;
28003;SDS011;15330;51.234;6.754;2022-11-20T14:01:58;54.30;;;26.60;;
28003;SDS011;15330;51.234;6.754;2022-11-20T14:04:35;58.22;;;26.88;;
28003;SDS011;15330;51.234;6.754;2022-11-20T14:07:07;48.03;;;25.63;;
28003;SDS011;15330;51.234;6.754;2022-11-20T14:09:34;53.15;;;26.13;;
28003;SDS011;15330;51.234;6.754;2022-11-20T14:12:00;52.40;;;25.88;;
28003;SDS011;15330;51.234;6.754;2022-11-20T14:14:27;52.88;;;25.45;;
28003;SDS011;15330;51.234;6.754;2022-11-20T14:17:07;51.28;;;25.30;;
28003;SDS011;15330;51.234;6.754;2022-11-20T14:19:34;60.42;;;28.70;;
28003;SDS011;15330;51.234;6.754;2022-11-20T14:22:18;58.72;;;27.08;;
28003;SDS011;15330;51.234;6.754;2022-11-20T14:24:49;57.53;;;27.65;;
28003;SDS011;15330;51.234;6.754;2022-11-20T14:27:25;54.72;;;26.85;;
28003;SDS011;15330;51.234;6.754;2022-11-20T14:29:51;55.92;;;26.35;;
28003;SDS011;15330;51.234;6.754;2022-11-20T14:32:17;56.22;;;27.08;;
28003;SDS011;15330;51.234;6.754;2022-11-20T14:34:45;51.13;;;25.95;;
28003;SDS011;15330;51.234;6.754;2022-11-20T14:37:17;50.00;;;24.60;;
28003;SDS011;15330;51.234;6.754;2022-11-20T14:39:50;52.53;;;25.20;;
28003;SDS011;15330;51.234;6.754;2022-11-20T14:42:18;49.65;;;23.42;;
28003;SDS011;15330;51.234;6.754;2022-11-20T14:44:45;49.50;;;25.17;;
28003;SDS011;15330;51.234;6.754;2022-11-20T14:47:15;53.80;;;25.30;;
28003;SDS011;15330;51.234;6.754;2022-11-20T14:49:44;49.53;;;24.55;;
28003;SDS011;15330;51.234;6.754;2022-11-20T14:52:11;48.47;;;25.55;;
28003;SDS011;15330;51.234;6.754;2022-11-20T14:54:49;48.05;;;22.70;;
28003;SDS011;15330;51.234;6.754;2022-11-20T14:57:26;47.50;;;24.55;;
28003;SDS011;15330;51.234;6.754;2022-11-20T15:05:11;42.75;;;23.02;;
28003;SDS011;15330;51.234;6.754;2022-11-20T15:07:39;43.95;;;23.00;;
28003;SDS011;15330;51.234;6.754;2022-11-20T15:12:46;45.45;;;22.30;;
28003;SDS011;15330;51.234;6.754;2022-11-20T15:15:19;41.83;;;21.55;;
28003;SDS011;15330;51.234;6.754;2022-11-20T15:18:10;42.25;;;20.58;;
28003;SDS011;15330;51.234;6.754;2022-11-20T15:20:38;41.05;;;21.75;;
28003;SDS011;15330;51.234;6.754;2022-11-20T15:23:09;41.20;;;21.08;;
28003;SDS011;15330;51.234;6.754;2022-11-20T15:25:36;39.20;;;19.92;;
28003;SDS011;15330;51.234;6.754;2022-11-20T15:28:04;44.13;;;22.13;;
28003;SDS011;15330;51.234;6.754;2022-11-20T15:30:46;43.72;;;23.35;;
28003;SDS011;15330;51.234;6.754;2022-11-20T15:33:13;48.15;;;23.02;;
28003;SDS011;15330;51.234;6.754;2022-11-20T15:35:38;45.20;;;22.73;;
28003;SDS011;15330;51.234;6.754;2022-11-20T15:38:04;46.58;;;24.30;;
28003;SDS011;15330;51.234;6.754;2022-11-20T15:40:29;43.38;;;22.67;;
28003;SDS011;15330;51.234;6.754;2022-11-20T15:42:54;50.22;;;23.20;;
28003;SDS011;15330;51.234;6.754;2022-11-20T15:45:39;50.25;;;23.00;;
28003;SDS011;15330;51.234;6.754;2022-11-20T15:48:05;49.20;;;23.90;;
28003;SDS011;15330;51.234;6.754;2022-11-20T15:53:09;45.33;;;21.88;;
28003;SDS011;15330;51.234;6.754;2022-11-20T15:55:35;49.20;;;23.33;;
28003;SDS011;15330;51.234;6.754;2022-11-20T15:58:00;48.53;;;24.13;;
28003;SDS011;15330;51.234;6.754;2022-11-20T16:00:26;46.50;;;23.45;;
28003;SDS011;15330;51.234;6.754;2022-11-20T16:02:51;58.15;;;26.67;;
28003;SDS011;15330;51.234;6.754;2022-11-20T16:05:17;49.85;;;24.60;;
28003;SDS011;15330;51.234;6.754;2022-11-20T16:07:42;49.90;;;23.73;;
28003;SDS011;15330;51.234;6.754;2022-11-20T16:10:08;55.88;;;24.80;;